createdAt,value
2023-04-01T00:01:12.574Z,987.7
2023-04-01T00:06:39.005Z,987.7
2023-04-01T00:11:45.498Z,987.7
2023-04-01T00:16:52.120Z,987.7
2023-04-01T00:21:58.356Z,987.6
2023-04-01T00:27:08.737Z,987.7
2023-04-01T00:31:51.116Z,987.7
2023-04-01T00:36:57.474Z,987.6
2023-04-01T00:42:03.829Z,987.6
2023-04-01T00:47:10.316Z,987.6
2023-04-01T00:52:16.652Z,987.6
2023-04-01T00:57:23.045Z,987.6
2023-04-01T01:02:29.558Z,987.6
2023-04-01T01:07:59.825Z,987.5
2023-04-01T01:12:42.189Z,987.6
2023-04-01T01:18:12.592Z,987.5
2023-04-01T01:22:55.042Z,987.5
2023-04-01T01:28:01.454Z,987.4
2023-04-01T01:33:08.051Z,987.5
2023-04-01T01:38:14.307Z,987.4
2023-04-01T01:43:20.718Z,987.4
2023-04-01T01:48:27.066Z,987.4
2023-04-01T01:53:33.452Z,987.4
2023-04-01T01:59:16.959Z,987.3
2023-04-01T02:04:24.324Z,987.3
2023-04-01T02:09:30.686Z,987.4
2023-04-01T02:15:33.553Z,987.4
2023-04-01T02:19:43.452Z,987.4
2023-04-01T02:25:10.521Z,987.4
2023-04-01T02:29:56.832Z,987.5
2023-04-01T02:35:03.303Z,987.4
2023-04-01T02:40:09.659Z,987.4
2023-04-01T02:45:53.730Z,987.4
2023-04-01T02:50:26.059Z,987.4
2023-04-01T02:56:09.481Z,987.4
2023-04-01T03:01:17.060Z,987.5
2023-04-01T03:06:57.525Z,987.6
2023-04-01T03:12:04.912Z,987.5
2023-04-01T03:17:11.300Z,987.6
2023-04-01T03:22:17.703Z,987.6
2023-04-01T03:27:48.096Z,987.6
2023-04-01T03:32:30.454Z,987.7
2023-04-01T03:38:33.041Z,987.7
2023-04-01T03:42:43.308Z,987.8
2023-04-01T03:47:49.844Z,987.7
2023-04-01T03:52:56.164Z,987.8
2023-04-01T03:58:06.572Z,987.8
2023-04-01T04:03:09.001Z,987.9
2023-04-01T04:08:39.345Z,987.8
2023-04-01T04:13:21.829Z,987.9
2023-04-01T04:18:28.230Z,987.9
2023-04-01T04:23:38.632Z,988.0
2023-04-01T04:29:15.117Z,988.0
2023-04-01T04:35:06.579Z,988.0
2023-04-01T04:39:52.911Z,988.0
2023-04-01T04:44:35.263Z,988.1
2023-04-01T04:50:05.709Z,988.1
2023-04-01T04:55:22.120Z,988.2
2023-04-01T05:00:29.703Z,988.2
2023-04-01T05:05:36.060Z,988.3
2023-04-01T05:10:42.493Z,988.4
2023-04-01T05:15:48.898Z,988.4
2023-04-01T05:20:45.225Z,988.4
2023-04-01T05:26:01.695Z,988.5
2023-04-01T05:31:08.217Z,988.5
2023-04-01T05:36:14.496Z,988.5
2023-04-01T05:41:41.117Z,988.6
2023-04-01T05:46:27.550Z,988.7
2023-04-01T05:51:37.873Z,988.7
2023-04-01T05:57:08.327Z,988.8
2023-04-01T06:01:46.654Z,988.7
2023-04-01T06:06:53.189Z,988.8
2023-04-01T06:11:59.628Z,988.8
2023-04-01T06:17:06.215Z,988.9
2023-04-01T06:22:51.927Z,988.9
2023-04-01T06:27:18.356Z,989.0
2023-04-01T06:32:26.005Z,989.0
2023-04-01T06:37:32.861Z,989.2
2023-04-01T06:42:39.244Z,989.1
2023-04-01T06:47:45.819Z,989.2
2023-04-01T06:52:51.970Z,989.2
2023-04-01T06:58:21.973Z,989.3
2023-04-01T07:03:08.363Z,989.3
2023-04-01T07:08:14.694Z,989.4
2023-04-01T07:13:21.071Z,989.4
2023-04-01T07:18:26.468Z,989.5
2023-04-01T07:23:33.900Z,989.5
2023-04-01T07:28:40.235Z,989.5
2023-04-01T07:33:46.638Z,989.6
2023-04-01T07:38:53.043Z,989.6
2023-04-01T07:43:59.432Z,989.7
2023-04-01T07:49:25.953Z,989.7
2023-04-01T07:54:36.297Z,989.7
2023-04-01T08:00:02.702Z,989.8
2023-04-01T08:04:25.029Z,989.9
2023-04-01T08:09:51.432Z,989.9
2023-04-01T08:14:37.760Z,990.0
2023-04-01T08:19:44.145Z,990.0
2023-04-01T08:24:50.497Z,990.0
2023-04-01T08:29:56.905Z,990.1
2023-04-01T08:35:03.308Z,990.1
2023-04-01T08:41:03.819Z,990.1
2023-04-01T08:45:50.259Z,990.2
2023-04-01T08:50:57.531Z,990.3
2023-04-01T08:56:03.969Z,990.3
2023-04-01T09:01:10.551Z,990.4
2023-04-01T09:06:16.997Z,990.4
2023-04-01T09:12:19.501Z,990.5
2023-04-01T09:16:29.942Z,990.6
2023-04-01T09:21:36.146Z,990.6
2023-04-01T09:26:42.541Z,990.6
2023-04-01T09:32:08.976Z,990.7
2023-04-01T09:36:55.292Z,990.7
2023-04-01T09:41:51.781Z,990.8
2023-04-01T09:47:08.205Z,990.8
2023-04-01T09:52:44.170Z,990.8
2023-04-01T09:57:40.989Z,991.0
2023-04-01T10:02:27.369Z,990.9
2023-04-01T10:07:33.720Z,990.9
2023-04-01T10:12:40.119Z,991.0
2023-04-01T10:17:46.657Z,991.1
2023-04-01T10:23:17.075Z,991.2
2023-04-01T10:27:59.639Z,991.3
2023-04-01T10:33:06.182Z,991.3
2023-04-01T10:38:32.515Z,991.4
2023-04-01T10:43:32.939Z,991.3
2023-04-01T10:49:21.364Z,991.4
2023-04-01T10:54:10.704Z,991.4
2023-04-01T10:58:37.037Z,991.4
2023-04-01T11:03:44.522Z,991.5
2023-04-01T11:09:34.947Z,991.5
2023-04-01T11:13:57.381Z,991.5
2023-04-01T11:19:07.753Z,991.6
2023-04-01T11:24:10.709Z,991.6
2023-04-01T11:29:53.102Z,991.7
2023-04-01T11:34:43.637Z,991.7
2023-04-01T11:39:50.034Z,991.8
2023-04-01T11:45:50.778Z,991.9
2023-04-01T11:49:42.810Z,992.0
2023-04-01T11:55:13.247Z,992.0
2023-04-01T11:59:55.585Z,992.2
2023-04-01T12:05:02.130Z,992.2
2023-04-01T12:10:08.375Z,992.2
2023-04-01T12:15:14.900Z,992.4
2023-04-01T12:20:21.290Z,992.4
2023-04-01T12:25:47.682Z,992.6
2023-04-01T12:30:58.062Z,992.6
2023-04-01T12:35:40.491Z,992.7
2023-04-01T12:41:10.826Z,992.8
2023-04-01T12:45:53.181Z,992.9
2023-04-01T12:51:23.593Z,992.9
2023-04-01T12:56:07.444Z,992.9
2023-04-01T13:01:17.877Z,993.0
2023-04-01T13:06:44.293Z,993.1
2023-04-01T13:11:46.641Z,993.1
2023-04-01T13:16:32.956Z,993.2
2023-04-01T13:21:39.581Z,993.2
2023-04-01T13:26:45.969Z,993.3
2023-04-01T13:31:52.422Z,993.4
2023-04-01T13:36:58.819Z,993.4
2023-04-01T13:42:05.213Z,993.5
2023-04-01T13:47:11.582Z,993.6
2023-04-01T13:52:17.970Z,993.5
2023-04-01T13:57:14.379Z,993.5
2023-04-01T14:02:30.881Z,993.6
2023-04-01T14:07:37.200Z,993.8
2023-04-01T14:12:43.629Z,993.8
2023-04-01T14:17:49.982Z,993.9
2023-04-01T14:22:56.339Z,994.0
2023-04-01T14:28:02.731Z,994.0
2023-04-01T14:33:29.123Z,994.2
2023-04-01T14:38:35.518Z,994.3
2023-04-01T14:43:23.128Z,994.4
2023-04-01T14:48:49.465Z,994.4
2023-04-01T14:53:35.809Z,994.5
2023-04-01T14:58:43.790Z,994.5
2023-04-01T15:03:50.345Z,994.6
2023-04-01T15:09:20.811Z,994.6
2023-04-01T15:19:10.110Z,994.8
2023-04-01T15:24:40.497Z,995.0
2023-04-01T15:29:22.825Z,995.1
2023-04-01T15:34:29.378Z,995.3
2023-04-01T15:39:35.722Z,995.3
2023-04-01T15:44:42.128Z,995.5
2023-04-01T15:49:48.529Z,995.6
2023-04-01T15:56:30.627Z,995.7
2023-04-01T16:00:02.832Z,995.8
2023-04-01T16:05:09.427Z,995.9
2023-04-01T16:10:15.775Z,996.0
2023-04-01T16:15:22.742Z,996.2
2023-04-01T16:20:29.219Z,996.4
2023-04-01T16:25:35.492Z,996.4
2023-04-01T16:30:41.897Z,996.5
2023-04-01T16:36:12.447Z,996.5
2023-04-01T16:40:54.696Z,996.7
2023-04-01T16:46:01.130Z,996.8
2023-04-01T16:50:57.446Z,997.0
2023-04-01T16:56:15.450Z,997.0
2023-04-01T17:01:21.901Z,997.1
2023-04-01T17:06:29.420Z,997.3
2023-04-01T17:12:30.759Z,997.4
2023-04-01T17:16:41.020Z,997.6
2023-04-01T17:21:47.539Z,997.7
2023-04-01T17:26:53.926Z,997.9
2023-04-01T17:32:00.329Z,998.0
2023-04-01T17:37:06.710Z,998.3
2023-04-01T17:42:13.096Z,998.3
2023-04-01T17:47:39.572Z,998.4
2023-04-01T17:53:09.920Z,998.6
2023-04-01T17:57:32.322Z,998.7
2023-04-01T18:03:02.826Z,998.9
2023-04-01T18:07:44.035Z,998.9
2023-04-01T18:12:51.426Z,999.1
2023-04-01T18:17:57.880Z,999.2
2023-04-01T18:23:04.230Z,999.3
2023-04-01T18:28:14.202Z,999.5
2023-04-01T18:33:20.572Z,999.6
2023-04-01T18:38:27.174Z,999.8
2023-04-01T18:43:33.541Z,999.7
2023-04-01T18:48:39.933Z,1000.0
2023-04-01T18:53:46.326Z,1000.2
2023-04-01T18:58:52.686Z,1000.3
2023-04-01T19:04:43.324Z,1000.4
2023-04-01T19:09:29.997Z,1000.5
2023-04-01T19:14:12.328Z,1000.7
2023-04-01T19:19:18.663Z,1000.8
2023-04-01T19:24:26.646Z,1000.9
2023-04-01T19:29:53.101Z,1001.1
2023-04-01T19:34:59.495Z,1001.1
2023-04-01T19:39:45.880Z,1001.3
2023-04-01T19:44:52.287Z,1001.3
2023-04-01T19:49:58.698Z,1001.4
2023-04-01T19:55:05.096Z,1001.5
2023-04-01T20:00:31.509Z,1001.6
2023-04-01T20:05:19.437Z,1001.8
2023-04-01T20:11:04.158Z,1001.9
2023-04-01T20:15:32.660Z,1002.0
2023-04-01T20:20:38.816Z,1002.3
2023-04-01T20:25:45.183Z,1002.3
2023-04-01T20:30:51.572Z,1002.5
2023-04-01T20:35:58.019Z,1002.6
2023-04-01T20:41:04.344Z,1002.7
2023-04-01T20:46:10.808Z,1002.8
2023-04-01T20:51:17.196Z,1002.9
2023-04-01T20:56:48.200Z,1003.1
2023-04-01T21:01:20.544Z,1003.2
2023-04-01T21:06:36.918Z,1003.2
2023-04-01T21:12:07.327Z,1003.3
2023-04-01T21:16:49.661Z,1003.5
2023-04-01T21:21:56.237Z,1003.6
2023-04-01T21:27:02.518Z,1003.7
2023-04-01T21:32:08.898Z,1003.9
2023-04-01T21:37:15.311Z,1004.1
2023-04-01T21:42:45.721Z,1004.1
2023-04-01T21:47:42.228Z,1004.2
2023-04-01T21:53:18.930Z,1004.4
2023-04-01T21:58:28.230Z,1004.4
2023-04-01T22:03:35.789Z,1004.6
2023-04-01T22:08:42.149Z,1004.6
2023-04-01T22:13:48.493Z,1004.8
2023-04-01T22:18:54.879Z,1004.9
2023-04-01T22:24:01.516Z,1005.0
2023-04-01T22:29:09.448Z,1005.2
2023-04-01T22:34:15.831Z,1005.2
2023-04-01T22:39:22.285Z,1005.3
2023-04-01T22:44:28.664Z,1005.4
2023-04-01T22:49:35.035Z,1005.5
2023-04-01T22:55:37.549Z,1005.5
2023-04-01T23:00:07.824Z,1005.7
2023-04-01T23:05:18.231Z,1005.7
2023-04-01T23:10:24.640Z,1005.8
2023-04-01T23:15:49.740Z,1005.9
2023-04-01T23:20:15.917Z,1006.0
2023-04-01T23:25:27.972Z,1006.2
2023-04-01T23:30:30.349Z,1006.3
2023-04-01T23:35:37.030Z,1006.3
2023-04-01T23:41:03.257Z,1006.5
2023-04-01T23:46:13.229Z,1006.7
2023-04-01T23:52:07.703Z,1006.7
2023-04-01T23:56:05.918Z,1006.7
